sensor_id;sensor_type;location;lat;lon;timestamp;pressure;altitude;pressure_sealevel;temperature;humidity
33075;BME280;19433;51.292;6.868;2023-01-26T00:00:51;101347.38;;;-2.80;100.00
33075;BME280;19433;51.292;6.868;2023-01-26T00:03:16;101337.41;;;-2.80;100.00
33075;BME280;19433;51.292;6.868;2023-01-26T00:05:42;101338.84;;;-2.60;100.00
33075;BME280;19433;51.292;6.868;2023-01-26T00:08:08;101337.09;;;-2.47;100.00
33075;BME280;19433;51.292;6.868;2023-01-26T00:10:35;101322.91;;;-2.65;100.00
33075;BME280;19433;51.292;6.868;2023-01-26T00:13:01;101321.09;;;-2.37;100.00
33075;BME280;19433;51.292;6.868;2023-01-26T00:15:27;101311.28;;;-2.53;100.00
33075;BME280;19433;51.292;6.868;2023-01-26T00:17:52;101309.34;;;-2.51;100.00
33075;BME280;19433;51.292;6.868;2023-01-26T00:20:17;101305.50;;;-2.46;100.00
33075;BME280;19433;51.292;6.868;2023-01-26T00:22:43;101283.06;;;-2.49;100.00
33075;BME280;19433;51.292;6.868;2023-01-26T00:25:09;101289.16;;;-2.45;100.00
33075;BME280;19433;51.292;6.868;2023-01-26T00:27:34;101297.16;;;-2.43;100.00
33075;BME280;19433;51.292;6.868;2023-01-26T00:35:04;101271.69;;;-2.54;100.00
33075;BME280;19433;51.292;6.868;2023-01-26T00:37:29;101240.44;;;-2.72;100.00
33075;BME280;19433;51.292;6.868;2023-01-26T00:39:55;101258.44;;;-2.58;100.00
33075;BME280;19433;51.292;6.868;2023-01-26T00:42:21;101226.03;;;-2.72;100.00
33075;BME280;19433;51.292;6.868;2023-01-26T00:44:48;101222.28;;;-2.70;100.00
33075;BME280;19433;51.292;6.868;2023-01-26T00:47:15;101210.91;;;-2.89;100.00
33075;BME280;19433;51.292;6.868;2023-01-26T00:49:41;101212.13;;;-2.93;100.00
33075;BME280;19433;51.292;6.868;2023-01-26T00:52:07;101243.75;;;-2.81;100.00
33075;BME280;19433;51.292;6.868;2023-01-26T00:54:33;101224.19;;;-2.99;100.00
33075;BME280;19433;51.292;6.868;2023-01-26T00:56:58;101213.13;;;-2.81;100.00
33075;BME280;19433;51.292;6.868;2023-01-26T00:59:24;101233.72;;;-2.52;100.00
33075;BME280;19433;51.292;6.868;2023-01-26T01:01:50;101245.75;;;-2.43;100.00
33075;BME280;19433;51.292;6.868;2023-01-26T01:04:16;101215.38;;;-2.88;100.00
33075;BME280;19433;51.292;6.868;2023-01-26T01:06:42;101229.81;;;-2.75;100.00
33075;BME280;19433;51.292;6.868;2023-01-26T01:09:08;101224.66;;;-2.92;100.00
33075;BME280;19433;51.292;6.868;2023-01-26T01:11:33;101213.09;;;-2.94;100.00
33075;BME280;19433;51.292;6.868;2023-01-26T01:14:00;101215.16;;;-2.85;100.00
33075;BME280;19433;51.292;6.868;2023-01-26T01:16:26;101231.88;;;-2.52;100.00
33075;BME280;19433;51.292;6.868;2023-01-26T01:18:53;101229.56;;;-2.58;100.00
33075;BME280;19433;51.292;6.868;2023-01-26T01:21:20;101216.03;;;-2.85;100.00
33075;BME280;19433;51.292;6.868;2023-01-26T01:23:46;101204.88;;;-2.93;100.00
33075;BME280;19433;51.292;6.868;2023-01-26T01:26:12;101214.19;;;-2.84;100.00
33075;BME280;19433;51.292;6.868;2023-01-26T01:28:38;101210.28;;;-2.93;100.00
33075;BME280;19433;51.292;6.868;2023-01-26T01:31:06;101201.41;;;-2.68;100.00
33075;BME280;19433;51.292;6.868;2023-01-26T01:33:33;101197.25;;;-3.00;100.00
33075;BME280;19433;51.292;6.868;2023-01-26T01:36:00;101224.00;;;-2.96;100.00
33075;BME280;19433;51.292;6.868;2023-01-26T01:38:27;101217.09;;;-2.87;100.00
33075;BME280;19433;51.292;6.868;2023-01-26T01:40:53;101189.91;;;-2.98;100.00
33075;BME280;19433;51.292;6.868;2023-01-26T01:43:19;101215.69;;;-2.93;100.00
33075;BME280;19433;51.292;6.868;2023-01-26T01:45:46;101194.69;;;-2.89;100.00
33075;BME280;19433;51.292;6.868;2023-01-26T01:50:56;101204.97;;;-2.67;100.00
33075;BME280;19433;51.292;6.868;2023-01-26T01:53:27;101196.66;;;-2.91;100.00
33075;BME280;19433;51.292;6.868;2023-01-26T01:55:57;101185.28;;;-2.96;100.00
33075;BME280;19433;51.292;6.868;2023-01-26T01:58:24;101184.22;;;-2.94;100.00
33075;BME280;19433;51.292;6.868;2023-01-26T02:00:51;101197.41;;;-2.89;100.00
33075;BME280;19433;51.292;6.868;2023-01-26T02:03:17;101202.63;;;-2.86;100.00
33075;BME280;19433;51.292;6.868;2023-01-26T02:08:15;101224.72;;;-2.53;100.00
33075;BME280;19433;51.292;6.868;2023-01-26T02:10:43;101213.56;;;-2.61;100.00
33075;BME280;19433;51.292;6.868;2023-01-26T02:13:11;101183.44;;;-2.69;100.00
33075;BME280;19433;51.292;6.868;2023-01-26T02:15:37;101192.81;;;-2.74;100.00
33075;BME280;19433;51.292;6.868;2023-01-26T02:18:03;101183.44;;;-2.69;100.00
33075;BME280;19433;51.292;6.868;2023-01-26T02:23:09;101165.00;;;-2.50;100.00
33075;BME280;19433;51.292;6.868;2023-01-26T02:28:18;101178.63;;;-2.51;100.00
33075;BME280;19433;51.292;6.868;2023-01-26T02:30:45;101161.13;;;-2.45;100.00
33075;BME280;19433;51.292;6.868;2023-01-26T02:33:25;101163.38;;;-2.52;100.00
33075;BME280;19433;51.292;6.868;2023-01-26T02:38:25;101202.53;;;-2.18;100.00
33075;BME280;19433;51.292;6.868;2023-01-26T02:40:55;101181.28;;;-2.37;100.00
33075;BME280;19433;51.292;6.868;2023-01-26T02:43:23;101204.84;;;-2.39;100.00
33075;BME280;19433;51.292;6.868;2023-01-26T02:45:50;101173.78;;;-2.46;100.00
33075;BME280;19433;51.292;6.868;2023-01-26T02:48:16;101189.41;;;-2.24;100.00
33075;BME280;19433;51.292;6.868;2023-01-26T02:51:02;101169.03;;;-2.42;100.00
33075;BME280;19433;51.292;6.868;2023-01-26T02:53:29;101152.78;;;-2.42;100.00
33075;BME280;19433;51.292;6.868;2023-01-26T02:55:54;101163.19;;;-2.36;100.00
33075;BME280;19433;51.292;6.868;2023-01-26T02:58:20;101178.59;;;-2.24;100.00
33075;BME280;19433;51.292;6.868;2023-01-26T03:00:45;101166.47;;;-2.31;100.00
33075;BME280;19433;51.292;6.868;2023-01-26T03:03:18;101133.53;;;-2.51;100.00
33075;BME280;19433;51.292;6.868;2023-01-26T03:05:44;101146.22;;;-2.26;100.00
33075;BME280;19433;51.292;6.868;2023-01-26T03:08:10;101167.56;;;-1.96;100.00
33075;BME280;19433;51.292;6.868;2023-01-26T03:10:36;101178.97;;;-2.03;100.00
33075;BME280;19433;51.292;6.868;2023-01-26T03:13:03;101143.31;;;-2.23;100.00
33075;BME280;19433;51.292;6.868;2023-01-26T03:15:29;101160.09;;;-2.18;100.00
33075;BME280;19433;51.292;6.868;2023-01-26T03:18:17;101158.44;;;-2.33;100.00
33075;BME280;19433;51.292;6.868;2023-01-26T03:21:05;101141.06;;;-2.16;100.00
33075;BME280;19433;51.292;6.868;2023-01-26T03:23:50;101160.97;;;-2.04;100.00
33075;BME280;19433;51.292;6.868;2023-01-26T03:26:35;101140.19;;;-2.29;100.00
33075;BME280;19433;51.292;6.868;2023-01-26T03:29:19;101136.91;;;-2.22;100.00
33075;BME280;19433;51.292;6.868;2023-01-26T03:31:45;101133.34;;;-2.22;100.00
33075;BME280;19433;51.292;6.868;2023-01-26T03:34:11;101132.06;;;-2.29;100.00
33075;BME280;19433;51.292;6.868;2023-01-26T03:36:36;101128.69;;;-2.33;100.00
33075;BME280;19433;51.292;6.868;2023-01-26T03:39:03;101138.09;;;-2.26;100.00
33075;BME280;19433;51.292;6.868;2023-01-26T03:41:29;101125.53;;;-2.39;100.00
33075;BME280;19433;51.292;6.868;2023-01-26T03:44:13;101145.59;;;-2.29;100.00
33075;BME280;19433;51.292;6.868;2023-01-26T03:46:57;101130.84;;;-2.25;100.00
33075;BME280;19433;51.292;6.868;2023-01-26T03:49:41;101138.34;;;-2.16;100.00
33075;BME280;19433;51.292;6.868;2023-01-26T03:52:25;101134.09;;;-2.20;100.00
33075;BME280;19433;51.292;6.868;2023-01-26T03:55:09;101146.03;;;-1.97;100.00
33075;BME280;19433;51.292;6.868;2023-01-26T03:57:53;101146.78;;;-2.08;100.00
33075;BME280;19433;51.292;6.868;2023-01-26T04:00:19;101130.75;;;-2.24;100.00
33075;BME280;19433;51.292;6.868;2023-01-26T04:02:48;101123.50;;;-2.10;100.00
33075;BME280;19433;51.292;6.868;2023-01-26T04:05:32;101133.91;;;-2.17;100.00
33075;BME280;19433;51.292;6.868;2023-01-26T04:08:16;101152.84;;;-1.92;100.00
33075;BME280;19433;51.292;6.868;2023-01-26T04:15:55;101158.81;;;-1.74;100.00
33075;BME280;19433;51.292;6.868;2023-01-26T04:18:48;101129.66;;;-1.96;100.00
33075;BME280;19433;51.292;6.868;2023-01-26T04:21:33;101126.19;;;-2.10;100.00
33075;BME280;19433;51.292;6.868;2023-01-26T04:24:01;101141.47;;;-2.09;100.00
33075;BME280;19433;51.292;6.868;2023-01-26T04:26:29;101130.88;;;-2.00;100.00
33075;BME280;19433;51.292;6.868;2023-01-26T04:29:03;101115.63;;;-2.01;100.00
33075;BME280;19433;51.292;6.868;2023-01-26T04:31:29;101149.38;;;-1.81;100.00
33075;BME280;19433;51.292;6.868;2023-01-26T04:33:55;101129.25;;;-2.02;100.00
33075;BME280;19433;51.292;6.868;2023-01-26T04:36:21;101142.38;;;-1.84;100.00
33075;BME280;19433;51.292;6.868;2023-01-26T04:38:47;101122.41;;;-1.95;100.00
33075;BME280;19433;51.292;6.868;2023-01-26T04:41:13;101136.94;;;-1.96;100.00
33075;BME280;19433;51.292;6.868;2023-01-26T04:43:39;101116.88;;;-1.94;100.00
33075;BME280;19433;51.292;6.868;2023-01-26T04:46:06;101127.19;;;-1.99;100.00
33075;BME280;19433;51.292;6.868;2023-01-26T04:48:32;101133.91;;;-1.92;100.00
33075;BME280;19433;51.292;6.868;2023-01-26T04:51:04;101124.50;;;-1.99;100.00
33075;BME280;19433;51.292;6.868;2023-01-26T04:53:33;101117.63;;;-1.79;100.00
33075;BME280;19433;51.292;6.868;2023-01-26T04:55:59;101127.81;;;-1.83;100.00
33075;BME280;19433;51.292;6.868;2023-01-26T04:58:25;101100.53;;;-1.92;100.00
33075;BME280;19433;51.292;6.868;2023-01-26T05:00:55;101138.66;;;-1.70;100.00
33075;BME280;19433;51.292;6.868;2023-01-26T05:03:21;101129.56;;;-1.69;100.00
33075;BME280;19433;51.292;6.868;2023-01-26T05:05:49;101114.69;;;-1.63;100.00
33075;BME280;19433;51.292;6.868;2023-01-26T05:08:15;101107.16;;;-1.84;100.00
33075;BME280;19433;51.292;6.868;2023-01-26T05:10:44;101115.03;;;-1.81;100.00
33075;BME280;19433;51.292;6.868;2023-01-26T05:13:11;101120.44;;;-1.68;100.00
33075;BME280;19433;51.292;6.868;2023-01-26T05:15:37;101105.72;;;-1.77;100.00
33075;BME280;19433;51.292;6.868;2023-01-26T05:18:03;101109.88;;;-1.84;100.00
33075;BME280;19433;51.292;6.868;2023-01-26T05:20:28;101139.16;;;-1.52;100.00
33075;BME280;19433;51.292;6.868;2023-01-26T05:22:54;101139.06;;;-1.63;100.00
33075;BME280;19433;51.292;6.868;2023-01-26T05:25:20;101118.72;;;-1.69;100.00
33075;BME280;19433;51.292;6.868;2023-01-26T05:27:46;101118.94;;;-1.59;100.00
33075;BME280;19433;51.292;6.868;2023-01-26T05:30:12;101152.91;;;-1.30;100.00
33075;BME280;19433;51.292;6.868;2023-01-26T05:32:37;101142.53;;;-1.49;100.00
33075;BME280;19433;51.292;6.868;2023-01-26T05:35:04;101125.09;;;-1.57;100.00
33075;BME280;19433;51.292;6.868;2023-01-26T05:37:31;101122.19;;;-1.54;100.00
33075;BME280;19433;51.292;6.868;2023-01-26T05:39:57;101155.19;;;-1.36;100.00
33075;BME280;19433;51.292;6.868;2023-01-26T05:42:23;101116.75;;;-1.54;100.00
33075;BME280;19433;51.292;6.868;2023-01-26T05:44:49;101138.09;;;-1.62;100.00
33075;BME280;19433;51.292;6.868;2023-01-26T05:47:14;101145.06;;;-1.71;100.00
33075;BME280;19433;51.292;6.868;2023-01-26T05:49:40;101161.41;;;-1.60;100.00
33075;BME280;19433;51.292;6.868;2023-01-26T05:52:11;101142.34;;;-1.58;100.00
33075;BME280;19433;51.292;6.868;2023-01-26T05:54:38;101140.84;;;-1.75;100.00
33075;BME280;19433;51.292;6.868;2023-01-26T05:57:04;101138.09;;;-1.62;100.00
33075;BME280;19433;51.292;6.868;2023-01-26T05:59:29;101138.09;;;-1.62;100.00
33075;BME280;19433;51.292;6.868;2023-01-26T06:01:56;101131.59;;;-1.60;100.00
33075;BME280;19433;51.292;6.868;2023-01-26T06:04:22;101140.34;;;-1.44;100.00
33075;BME280;19433;51.292;6.868;2023-01-26T06:06:48;101157.25;;;-1.40;100.00
33075;BME280;19433;51.292;6.868;2023-01-26T06:09:16;101133.13;;;-1.56;100.00
33075;BME280;19433;51.292;6.868;2023-01-26T06:11:42;101151.59;;;-1.37;100.00
33075;BME280;19433;51.292;6.868;2023-01-26T06:14:07;101137.66;;;-1.44;100.00
33075;BME280;19433;51.292;6.868;2023-01-26T06:32:04;101151.22;;;-1.20;100.00
33075;BME280;19433;51.292;6.868;2023-01-26T06:37:47;101152.91;;;-1.30;100.00
33075;BME280;19433;51.292;6.868;2023-01-26T06:44:01;101154.25;;;-1.73;100.00
33075;BME280;19433;51.292;6.868;2023-01-26T06:49:47;101158.38;;;-1.93;100.00
33075;BME280;19433;51.292;6.868;2023-01-26T06:56:04;101171.81;;;-1.79;100.00
33075;BME280;19433;51.292;6.868;2023-01-26T07:05:52;101174.63;;;-1.55;100.00
33075;BME280;19433;51.292;6.868;2023-01-26T07:08:17;101173.31;;;-1.50;100.00
33075;BME280;19433;51.292;6.868;2023-01-26T07:10:42;101174.53;;;-1.54;100.00
33075;BME280;19433;51.292;6.868;2023-01-26T07:13:08;101174.16;;;-1.49;100.00
33075;BME280;19433;51.292;6.868;2023-01-26T10:52:21;101184.09;;;0.63;100.00
33075;BME280;19433;51.292;6.868;2023-01-26T10:54:48;101192.28;;;0.75;100.00
33075;BME280;19433;51.292;6.868;2023-01-26T10:57:26;101177.19;;;0.70;100.00
33075;BME280;19433;51.292;6.868;2023-01-26T10:59:55;101188.44;;;0.55;100.00
33075;BME280;19433;51.292;6.868;2023-01-26T11:02:27;101188.06;;;0.59;100.00
33075;BME280;19433;51.292;6.868;2023-01-26T11:07:34;101182.25;;;0.42;100.00
33075;BME280;19433;51.292;6.868;2023-01-26T11:10:24;101181.84;;;0.46;100.00
33075;BME280;19433;51.292;6.868;2023-01-26T11:12:51;101176.56;;;0.56;100.00
33075;BME280;19433;51.292;6.868;2023-01-26T11:15:35;101173.47;;;0.72;100.00
33075;BME280;19433;51.292;6.868;2023-01-26T11:18:12;101177.91;;;0.84;100.00
33075;BME280;19433;51.292;6.868;2023-01-26T11:20:47;101160.47;;;0.97;100.00
33075;BME280;19433;51.292;6.868;2023-01-26T11:43:29;101171.84;;;1.02;100.00
33075;BME280;19433;51.292;6.868;2023-01-26T11:51:42;101167.00;;;1.17;100.00
33075;BME280;19433;51.292;6.868;2023-01-26T11:54:23;101163.63;;;1.25;100.00
33075;BME280;19433;51.292;6.868;2023-01-26T11:59:51;101161.78;;;1.14;100.00
33075;BME280;19433;51.292;6.868;2023-01-26T12:02:24;101167.63;;;0.98;100.00
33075;BME280;19433;51.292;6.868;2023-01-26T12:04:55;101151.91;;;1.13;100.00
33075;BME280;19433;51.292;6.868;2023-01-26T12:07:32;101147.03;;;1.28;100.00
33075;BME280;19433;51.292;6.868;2023-01-26T12:10:16;101145.72;;;1.11;100.00
33075;BME280;19433;51.292;6.868;2023-01-26T12:12:48;101142.13;;;1.22;100.00
33075;BME280;19433;51.292;6.868;2023-01-26T12:15:28;101140.41;;;1.10;100.00
33075;BME280;19433;51.292;6.868;2023-01-26T12:18:18;101136.16;;;1.28;100.00
33075;BME280;19433;51.292;6.868;2023-01-26T12:20:53;101124.75;;;1.34;100.00
33075;BME280;19433;51.292;6.868;2023-01-26T12:23:29;101125.50;;;1.25;100.00
33075;BME280;19433;51.292;6.868;2023-01-26T12:26:12;101114.25;;;1.29;100.00
33075;BME280;19433;51.292;6.868;2023-01-26T12:29:06;101112.94;;;1.45;100.00
33075;BME280;19433;51.292;6.868;2023-01-26T12:31:45;101115.31;;;1.38;100.00
33075;BME280;19433;51.292;6.868;2023-01-26T12:34:13;101109.16;;;1.36;100.00
33075;BME280;19433;51.292;6.868;2023-01-26T12:42:18;101084.53;;;1.58;100.00
33075;BME280;19433;51.292;6.868;2023-01-26T12:44:57;101094.66;;;1.67;100.00
33075;BME280;19433;51.292;6.868;2023-01-26T12:47:45;101061.44;;;1.53;100.00
33075;BME280;19433;51.292;6.868;2023-01-26T12:50:26;101089.28;;;1.77;100.00
33075;BME280;19433;51.292;6.868;2023-01-26T12:53:01;101098.31;;;1.77;100.00
33075;BME280;19433;51.292;6.868;2023-01-26T12:58:17;101090.66;;;1.51;100.00
33075;BME280;19433;51.292;6.868;2023-01-26T13:00:54;101104.16;;;1.52;100.00
33075;BME280;19433;51.292;6.868;2023-01-26T13:03:31;101070.94;;;1.26;100.00
33075;BME280;19433;51.292;6.868;2023-01-26T13:06:02;101093.69;;;1.36;100.00
33075;BME280;19433;51.292;6.868;2023-01-26T13:09:02;101103.50;;;1.28;100.00
33075;BME280;19433;51.292;6.868;2023-01-26T13:11:57;101083.81;;;1.24;100.00
33075;BME280;19433;51.292;6.868;2023-01-26T13:16:52;101074.97;;;1.11;100.00
33075;BME280;19433;51.292;6.868;2023-01-26T13:19:34;101084.69;;;1.25;100.00
33075;BME280;19433;51.292;6.868;2023-01-26T13:22:01;101068.34;;;1.04;100.00
33075;BME280;19433;51.292;6.868;2023-01-26T13:26:56;101096.28;;;0.95;100.00
33075;BME280;19433;51.292;6.868;2023-01-26T13:34:41;101101.63;;;0.85;100.00
33075;BME280;19433;51.292;6.868;2023-01-26T13:37:15;101075.34;;;0.63;100.00
33075;BME280;19433;51.292;6.868;2023-01-26T13:39:46;101084.00;;;0.46;100.00
33075;BME280;19433;51.292;6.868;2023-01-26T13:42:43;101075.47;;;0.51;100.00
33075;BME280;19433;51.292;6.868;2023-01-26T13:45:28;101084.47;;;0.62;100.00
33075;BME280;19433;51.292;6.868;2023-01-26T13:47:57;101071.88;;;0.73;100.00
33075;BME280;19433;51.292;6.868;2023-01-26T13:50:35;101077.31;;;0.73;100.00
33075;BME280;19433;51.292;6.868;2023-01-26T13:53:51;101069.66;;;0.66;100.00
33075;BME280;19433;51.292;6.868;2023-01-26T13:56:27;101079.28;;;0.70;100.00
33075;BME280;19433;51.292;6.868;2023-01-26T13:59:02;101077.78;;;0.89;100.00
33075;BME280;19433;51.292;6.868;2023-01-26T14:01:28;101065.94;;;0.67;100.00
33075;BME280;19433;51.292;6.868;2023-01-26T14:04:05;101073.22;;;0.78;100.00
33075;BME280;19433;51.292;6.868;2023-01-26T14:06:32;101076.38;;;0.94;100.00
33075;BME280;19433;51.292;6.868;2023-01-26T14:08:58;101057.13;;;0.86;100.00
33075;BME280;19433;51.292;6.868;2023-01-26T14:11:30;101080.59;;;0.98;100.00
33075;BME280;19433;51.292;6.868;2023-01-26T14:13:58;101069.44;;;1.01;100.00
33075;BME280;19433;51.292;6.868;2023-01-26T14:16:33;101064.91;;;0.91;100.00
33075;BME280;19433;51.292;6.868;2023-01-26T14:21:51;101061.41;;;1.00;100.00
33075;BME280;19433;51.292;6.868;2023-01-26T14:24:34;101060.38;;;1.12;100.00
33075;BME280;19433;51.292;6.868;2023-01-26T14:27:05;101070.50;;;1.21;100.00
33075;BME280;19433;51.292;6.868;2023-01-26T14:29:37;101067.06;;;1.08;100.00
33075;BME280;19433;51.292;6.868;2023-01-26T14:32:03;101075.50;;;1.05;100.00
33075;BME280;19433;51.292;6.868;2023-01-26T14:34:30;101081.69;;;0.96;100.00
33075;BME280;19433;51.292;6.868;2023-01-26T14:37:25;101072.03;;;1.03;100.00
33075;BME280;19433;51.292;6.868;2023-01-26T14:40:15;101082.22;;;0.90;100.00
33075;BME280;19433;51.292;6.868;2023-01-26T14:42:44;101076.81;;;0.67;100.00
33075;BME280;19433;51.292;6.868;2023-01-26T14:45:11;101078.06;;;0.75;100.00
33075;BME280;19433;51.292;6.868;2023-01-26T14:47:38;101071.63;;;0.76;100.00
33075;BME280;19433;51.292;6.868;2023-01-26T14:50:13;101088.06;;;0.74;100.00
33075;BME280;19433;51.292;6.868;2023-01-26T14:52:43;101085.72;;;0.47;100.00
33075;BME280;19433;51.292;6.868;2023-01-26T14:55:25;101087.59;;;0.58;100.00
33075;BME280;19433;51.292;6.868;2023-01-26T14:57:52;101082.66;;;0.52;100.00
33075;BME280;19433;51.292;6.868;2023-01-26T15:00:33;101085.59;;;0.71;100.00
33075;BME280;19433;51.292;6.868;2023-01-26T15:03:04;101091.50;;;0.87;100.00
33075;BME280;19433;51.292;6.868;2023-01-26T15:05:36;101095.47;;;0.83;100.00
33075;BME280;19433;51.292;6.868;2023-01-26T15:08:04;101094.94;;;1.00;100.00
33075;BME280;19433;51.292;6.868;2023-01-26T15:10:34;101109.03;;;1.05;100.00
33075;BME280;19433;51.292;6.868;2023-01-26T15:15:45;101101.34;;;0.99;100.00
33075;BME280;19433;51.292;6.868;2023-01-26T15:20:43;101113.06;;;1.11;100.00
33075;BME280;19433;51.292;6.868;2023-01-26T15:25:46;101112.59;;;1.06;100.00
33075;BME280;19433;51.292;6.868;2023-01-26T15:28:16;101109.72;;;1.19;100.00
33075;BME280;19433;51.292;6.868;2023-01-26T15:30:46;101118.34;;;1.24;100.00
33075;BME280;19433;51.292;6.868;2023-01-26T15:33:39;101107.56;;;1.22;100.00
33075;BME280;19433;51.292;6.868;2023-01-26T15:36:16;101100.94;;;1.15;100.00
33075;BME280;19433;51.292;6.868;2023-01-26T15:38:45;101096.25;;;1.17;100.00
33075;BME280;19433;51.292;6.868;2023-01-26T15:41:11;101091.41;;;1.21;100.00
33075;BME280;19433;51.292;6.868;2023-01-26T15:43:37;101089.41;;;1.23;100.00
33075;BME280;19433;51.292;6.868;2023-01-26T15:46:02;101082.31;;;1.31;100.00
33075;BME280;19433;51.292;6.868;2023-01-26T15:48:27;101094.75;;;1.45;100.00
33075;BME280;19433;51.292;6.868;2023-01-26T15:50:55;101082.13;;;1.44;100.00
33075;BME280;19433;51.292;6.868;2023-01-26T15:53:21;101082.13;;;1.44;100.00
33075;BME280;19433;51.292;6.868;2023-01-26T15:55:48;101080.66;;;1.40;100.00
33075;BME280;19433;51.292;6.868;2023-01-26T15:58:19;101081.06;;;1.35;100.00
33075;BME280;19433;51.292;6.868;2023-01-26T16:00:45;101083.69;;;1.37;100.00
33075;BME280;19433;51.292;6.868;2023-01-26T16:03:14;101076.63;;;1.34;100.00
33075;BME280;19433;51.292;6.868;2023-01-26T16:05:40;101066.50;;;1.25;100.00
33075;BME280;19433;51.292;6.868;2023-01-26T16:08:06;101067.50;;;1.24;100.00
33075;BME280;19433;51.292;6.868;2023-01-26T16:10:31;101075.41;;;1.27;100.00
33075;BME280;19433;51.292;6.868;2023-01-26T16:12:57;101061.31;;;1.22;100.00
33075;BME280;19433;51.292;6.868;2023-01-26T16:15:49;101075.38;;;1.07;100.00
33075;BME280;19433;51.292;6.868;2023-01-26T16:18:14;101086.34;;;1.16;100.00
33075;BME280;19433;51.292;6.868;2023-01-26T16:20:41;101080.28;;;1.13;100.00
33075;BME280;19433;51.292;6.868;2023-01-26T16:23:17;101074.91;;;1.22;100.00
33075;BME280;19433;51.292;6.868;2023-01-26T16:25:42;101082.25;;;1.22;100.00
